createdAt,value
2023-05-20T05:00:47.608Z,1006.21
2023-05-20T05:01:47.597Z,1006.13
2023-05-20T05:02:47.586Z,1006.15
2023-05-20T05:03:47.524Z,1006.12
2023-05-20T05:04:47.618Z,1006.13
2023-05-20T05:05:47.502Z,1006.10
2023-05-20T05:06:47.549Z,1006.07
2023-05-20T05:07:47.483Z,1006.05
2023-05-20T05:08:47.472Z,1005.95
2023-05-20T05:09:47.481Z,1006.06
2023-05-20T05:10:47.460Z,1006.04
2023-05-20T05:11:52.470Z,1006.05
2023-05-20T05:12:47.428Z,1006.06
2023-05-20T05:13:47.415Z,1006.02
2023-05-20T05:14:47.424Z,1006.00
2023-05-20T05:15:47.425Z,1006.02
2023-05-20T05:16:47.405Z,1006.04
2023-05-20T05:17:47.446Z,1006.04
2023-05-20T05:18:47.403Z,1005.93
2023-05-20T05:19:47.373Z,1006.02
2023-05-20T05:20:47.378Z,1006.03
2023-05-20T05:21:47.323Z,1006.00
2023-05-20T05:22:52.353Z,1005.94
2023-05-20T05:23:47.306Z,1005.97
2023-05-20T05:24:47.299Z,1005.99
2023-05-20T05:25:47.312Z,1005.91
2023-05-20T05:26:47.276Z,1005.95
2023-05-20T05:27:47.255Z,1005.92
2023-05-20T05:28:47.243Z,1005.88
2023-05-20T05:29:47.248Z,1005.86
2023-05-20T05:30:47.227Z,1005.88
2023-05-20T05:31:47.232Z,1005.96
2023-05-20T05:32:47.362Z,1005.92
2023-05-20T05:33:52.216Z,1005.85
2023-05-20T05:34:47.184Z,1005.86
2023-05-20T05:35:47.165Z,1005.86
2023-05-20T05:36:47.164Z,1005.87
2023-05-20T05:37:47.155Z,1005.88
2023-05-20T05:38:47.157Z,1005.90
2023-05-20T05:39:47.134Z,1005.80
2023-05-20T05:40:47.103Z,1005.91
2023-05-20T05:41:47.094Z,1005.80
2023-05-20T05:42:47.098Z,1005.86
2023-05-20T05:43:47.084Z,1005.82
2023-05-20T05:44:52.141Z,1005.86
2023-05-20T05:45:47.053Z,1005.77
2023-05-20T05:46:47.064Z,1005.85
2023-05-20T05:47:47.067Z,1005.74
2023-05-20T05:48:47.053Z,1005.76
2023-05-20T05:49:47.017Z,1005.77
2023-05-20T05:50:47.001Z,1005.79
2023-05-20T05:51:46.984Z,1005.68
2023-05-20T05:52:46.973Z,1005.70
2023-05-20T05:53:46.970Z,1005.62
2023-05-20T05:54:46.949Z,1005.76
2023-05-20T05:55:51.960Z,1005.65
2023-05-20T05:56:46.938Z,1005.69
2023-05-20T05:57:46.924Z,1005.70
2023-05-20T05:58:46.912Z,1005.70
2023-05-20T05:59:46.896Z,1005.68
2023-05-20T06:00:46.981Z,1005.71
2023-05-20T06:01:46.940Z,1005.70
2023-05-20T06:02:47.134Z,1005.68
2023-05-20T06:03:46.982Z,1005.70
2023-05-20T06:04:46.875Z,1005.78
2023-05-20T06:05:46.827Z,1005.74
2023-05-20T06:06:51.833Z,1005.75
2023-05-20T06:07:46.824Z,1005.67
2023-05-20T06:08:46.814Z,1005.65
2023-05-20T06:09:46.779Z,1005.72
2023-05-20T06:10:46.780Z,1005.75
2023-05-20T06:11:46.771Z,1005.65
2023-05-20T06:12:46.761Z,1005.69
2023-05-20T06:13:46.739Z,1005.70
2023-05-20T06:14:46.735Z,1005.68
2023-05-20T06:15:46.713Z,1005.67
2023-05-20T06:16:46.761Z,1005.72
2023-05-20T06:17:51.724Z,1005.65
2023-05-20T06:18:46.728Z,1005.73
2023-05-20T06:19:46.662Z,1005.66
2023-05-20T06:20:46.679Z,1005.71
2023-05-20T06:21:46.697Z,1005.69
2023-05-20T06:22:46.717Z,1005.74
2023-05-20T06:23:46.623Z,1005.68
2023-05-20T06:24:46.604Z,1005.79
2023-05-20T06:25:46.614Z,1005.72
2023-05-20T06:26:46.613Z,1005.75
2023-05-20T06:27:46.586Z,1005.67
2023-05-20T06:28:51.582Z,1005.68
2023-05-20T06:29:46.548Z,1005.78
2023-05-20T06:30:46.557Z,1005.74
2023-05-20T06:31:46.531Z,1005.75
2023-05-20T06:32:46.605Z,1005.71
2023-05-20T06:33:46.511Z,1005.73
2023-05-20T06:34:46.506Z,1005.74
2023-05-20T06:35:46.496Z,1005.65
2023-05-20T06:36:46.489Z,1005.67
2023-05-20T06:37:46.482Z,1005.66
2023-05-20T06:38:46.477Z,1005.67
2023-05-20T06:39:51.474Z,1005.67
2023-05-20T06:40:46.446Z,1005.65
2023-05-20T06:41:46.416Z,1005.61
2023-05-20T06:42:46.414Z,1005.61
2023-05-20T06:43:46.393Z,1005.62
2023-05-20T06:44:46.426Z,1005.65
2023-05-20T06:45:46.374Z,1005.72
2023-05-20T06:46:46.500Z,1005.63
2023-05-20T06:47:46.397Z,1005.64
2023-05-20T06:48:46.338Z,1005.63
2023-05-20T06:49:47.669Z,1005.64
2023-05-20T06:50:51.379Z,1005.66
2023-05-20T06:51:46.301Z,1005.59
2023-05-20T06:52:46.322Z,1005.62
2023-05-20T06:53:46.292Z,1005.62
2023-05-20T06:54:46.273Z,1005.68
2023-05-20T06:55:46.260Z,1005.57
2023-05-20T06:56:46.316Z,1005.57
2023-05-20T06:57:46.244Z,1005.60
2023-05-20T06:58:46.233Z,1005.60
2023-05-20T06:59:46.212Z,1005.54
2023-05-20T07:00:46.198Z,1005.55
2023-05-20T07:01:51.261Z,1005.53
2023-05-20T07:02:46.272Z,1005.50
2023-05-20T07:03:46.279Z,1005.45
2023-05-20T07:04:46.167Z,1005.49
2023-05-20T07:05:46.141Z,1005.45
2023-05-20T07:06:46.133Z,1005.41
2023-05-20T07:07:46.152Z,1005.41
2023-05-20T07:08:46.157Z,1005.48
2023-05-20T07:09:46.100Z,1005.45
2023-05-20T07:10:46.084Z,1005.39
2023-05-20T07:11:46.079Z,1005.44
2023-05-20T07:12:51.089Z,1005.44
2023-05-20T07:13:46.059Z,1005.42
2023-05-20T07:14:46.064Z,1005.44
2023-05-20T07:15:46.060Z,1005.41
2023-05-20T07:16:46.013Z,1005.39
2023-05-20T07:17:46.022Z,1005.36
2023-05-20T07:18:46.051Z,1005.32
2023-05-20T07:19:45.981Z,1005.35
2023-05-20T07:20:46.018Z,1005.37
2023-05-20T07:21:45.978Z,1005.37
2023-05-20T07:22:45.970Z,1005.37
2023-05-20T07:23:50.985Z,1005.36
2023-05-20T07:24:45.927Z,1005.39
2023-05-20T07:25:45.916Z,1005.43
2023-05-20T07:26:45.940Z,1005.39
2023-05-20T07:27:45.916Z,1005.40
2023-05-20T07:28:45.877Z,1005.34
2023-05-20T07:29:45.863Z,1005.33
2023-05-20T07:30:45.852Z,1005.33
2023-05-20T07:31:45.921Z,1005.28
2023-05-20T07:32:45.891Z,1005.21
2023-05-20T07:33:45.843Z,1005.28
2023-05-20T07:34:50.830Z,1005.21
2023-05-20T07:35:45.812Z,1005.21
2023-05-20T07:36:45.801Z,1005.10
2023-05-20T07:37:45.788Z,1005.21
2023-05-20T07:38:57.079Z,1005.22
2023-05-20T07:39:45.800Z,1005.19
2023-05-20T07:40:45.747Z,1005.18
2023-05-20T07:41:45.744Z,1005.23
2023-05-20T07:42:45.715Z,1005.20
2023-05-20T07:43:45.818Z,1005.24
2023-05-20T07:44:45.717Z,1005.23
2023-05-20T07:45:50.745Z,1005.18
2023-05-20T07:46:45.676Z,1005.13
2023-05-20T07:47:45.782Z,1005.23
2023-05-20T07:48:45.657Z,1005.23
2023-05-20T07:49:45.654Z,1005.17
2023-05-20T07:50:45.644Z,1005.20
2023-05-20T07:51:45.646Z,1005.20
2023-05-20T07:52:55.838Z,1005.14
2023-05-20T07:53:45.615Z,1005.21
2023-05-20T07:54:45.632Z,1005.19
2023-05-20T07:55:45.600Z,1005.13
2023-05-20T07:56:50.591Z,1005.14
2023-05-20T07:57:45.556Z,1005.14
2023-05-20T07:58:45.540Z,1005.17
2023-05-20T07:59:45.568Z,1005.19
2023-05-20T08:00:45.516Z,1005.16
2023-05-20T08:01:45.506Z,1005.08
2023-05-20T08:02:45.580Z,1005.15
2023-05-20T08:03:45.582Z,1005.05
2023-05-20T08:04:45.477Z,1005.05
2023-05-20T08:05:45.492Z,1004.96
2023-05-20T08:06:45.462Z,1004.99
2023-05-20T08:07:50.466Z,1005.02
2023-05-20T08:08:45.434Z,1004.99
2023-05-20T08:09:45.429Z,1004.92
2023-05-20T08:10:45.438Z,1004.95
2023-05-20T08:11:47.311Z,1005.07
2023-05-20T08:12:45.386Z,1005.04
2023-05-20T08:13:45.386Z,1005.04
2023-05-20T08:14:45.366Z,1005.04
2023-05-20T08:15:45.347Z,1005.03
2023-05-20T08:16:45.364Z,1004.98
2023-05-20T08:17:45.381Z,1004.93
2023-05-20T08:18:50.366Z,1005.01
2023-05-20T08:19:45.311Z,1004.94
2023-05-20T08:20:45.294Z,1004.90
2023-05-20T08:21:45.283Z,1004.94
2023-05-20T08:22:45.273Z,1004.94
2023-05-20T08:23:45.286Z,1004.96
2023-05-20T08:24:45.251Z,1004.95
2023-05-20T08:25:45.231Z,1004.95
2023-05-20T08:26:45.231Z,1005.01
2023-05-20T08:27:45.249Z,1004.99
2023-05-20T08:28:45.201Z,1004.98
2023-05-20T08:29:50.272Z,1005.02
2023-05-20T08:30:45.231Z,1004.98
2023-05-20T08:31:45.163Z,1005.05
2023-05-20T08:32:45.199Z,1004.96
2023-05-20T08:33:45.148Z,1005.00
2023-05-20T08:34:45.147Z,1005.05
2023-05-20T08:35:45.142Z,1004.98
2023-05-20T08:36:45.125Z,1004.97
2023-05-20T08:37:45.105Z,1004.98
2023-05-20T08:38:45.108Z,1005.03
2023-05-20T08:39:45.072Z,1005.03
2023-05-20T08:40:50.082Z,1005.01
2023-05-20T08:41:45.086Z,1004.93
2023-05-20T08:42:45.052Z,1004.93
2023-05-20T08:43:45.083Z,1004.98
2023-05-20T08:44:45.017Z,1005.01
2023-05-20T08:45:45.003Z,1004.88
2023-05-20T08:46:45.137Z,1004.95
2023-05-20T08:47:45.070Z,1004.97
2023-05-20T08:48:44.972Z,1005.00
2023-05-20T08:49:44.964Z,1004.95
2023-05-20T08:50:44.966Z,1004.93
2023-05-20T08:51:49.969Z,1004.89
2023-05-20T08:52:44.924Z,1004.92
2023-05-20T08:53:44.930Z,1004.92
2023-05-20T08:54:44.905Z,1005.00
2023-05-20T08:55:44.904Z,1004.92
2023-05-20T08:56:44.919Z,1004.88
2023-05-20T08:57:44.907Z,1004.98
2023-05-20T08:58:44.861Z,1004.88
2023-05-20T08:59:45.009Z,1004.80
2023-05-20T09:00:44.856Z,1004.72
2023-05-20T09:01:44.877Z,1004.82
2023-05-20T09:02:49.859Z,1004.82
2023-05-20T09:03:44.804Z,1004.88
2023-05-20T09:04:44.821Z,1004.81
2023-05-20T09:05:44.810Z,1004.75
2023-05-20T09:06:44.776Z,1004.69
2023-05-20T09:07:44.762Z,1004.60
2023-05-20T09:08:44.750Z,1004.48
2023-05-20T09:09:44.774Z,1004.59
2023-05-20T09:10:44.740Z,1004.58
2023-05-20T09:11:44.752Z,1004.52
2023-05-20T09:12:44.701Z,1004.57
2023-05-20T09:13:49.715Z,1004.64
2023-05-20T09:14:44.688Z,1004.61
2023-05-20T09:15:44.693Z,1004.66
2023-05-20T09:16:44.677Z,1004.68
2023-05-20T09:17:44.691Z,1004.56
2023-05-20T09:18:44.645Z,1004.55
2023-05-20T09:19:44.633Z,1004.53
2023-05-20T09:20:44.609Z,1004.57
2023-05-20T09:21:44.603Z,1004.56
2023-05-20T09:22:44.590Z,1004.61
2023-05-20T09:23:44.620Z,1004.58
2023-05-20T09:24:49.662Z,1004.59
2023-05-20T09:25:44.557Z,1004.65
2023-05-20T09:26:44.550Z,1004.61
2023-05-20T09:27:44.532Z,1004.61
2023-05-20T09:28:44.525Z,1004.64
2023-05-20T09:29:44.535Z,1004.74
2023-05-20T09:30:45.987Z,1004.69
2023-05-20T09:31:44.549Z,1004.66
2023-05-20T09:32:44.492Z,1004.55
2023-05-20T09:33:44.480Z,1004.62
2023-05-20T09:34:44.452Z,1004.57
2023-05-20T09:35:49.493Z,1004.58
2023-05-20T09:36:44.427Z,1004.56
2023-05-20T09:37:44.439Z,1004.58
2023-05-20T09:38:44.415Z,1004.65
2023-05-20T09:39:44.393Z,1004.73
2023-05-20T09:40:44.410Z,1004.73
2023-05-20T09:41:44.420Z,1004.82
2023-05-20T09:42:44.358Z,1004.87
2023-05-20T09:43:44.383Z,1004.61
2023-05-20T09:44:44.344Z,1004.71
2023-05-20T09:45:44.334Z,1004.51
2023-05-20T09:46:49.360Z,1004.48
2023-05-20T09:47:44.393Z,1004.56
2023-05-20T09:48:44.327Z,1004.63
2023-05-20T09:49:44.285Z,1004.55
2023-05-20T09:50:44.318Z,1004.57
2023-05-20T09:51:44.258Z,1004.52
2023-05-20T09:52:44.263Z,1004.50
2023-05-20T09:53:44.289Z,1004.52
2023-05-20T09:54:44.230Z,1004.56
2023-05-20T09:55:44.208Z,1004.54
2023-05-20T09:56:44.203Z,1004.53
2023-05-20T09:57:44.202Z,1004.63
2023-05-20T09:58:44.184Z,1004.54
2023-05-20T09:59:49.239Z,1004.54
2023-05-20T10:00:44.175Z,1004.54
2023-05-20T10:01:44.176Z,1004.50
2023-05-20T10:02:44.258Z,1004.61
2023-05-20T10:03:44.555Z,1004.44
2023-05-20T10:04:44.119Z,1004.47
2023-05-20T10:05:44.102Z,1004.42
2023-05-20T10:06:44.132Z,1004.40
2023-05-20T10:07:44.105Z,1004.42
2023-05-20T10:08:44.071Z,1004.45
2023-05-20T10:09:44.061Z,1004.43
2023-05-20T10:10:49.069Z,1004.41
2023-05-20T10:11:44.071Z,1004.34
2023-05-20T10:12:44.078Z,1004.35
2023-05-20T10:13:44.021Z,1004.35
2023-05-20T10:14:44.001Z,1004.33
2023-05-20T10:15:44.018Z,1004.22
2023-05-20T10:16:43.996Z,1004.28
2023-05-20T10:17:43.993Z,1004.27
2023-05-20T10:18:44.025Z,1004.27
2023-05-20T10:19:43.945Z,1004.17
2023-05-20T10:20:43.947Z,1004.24
2023-05-20T10:21:48.957Z,1004.31
2023-05-20T10:22:43.941Z,1004.30
2023-05-20T10:23:43.900Z,1004.38
2023-05-20T10:24:43.970Z,1004.30
2023-05-20T10:25:43.894Z,1004.32
2023-05-20T10:26:43.869Z,1004.22
2023-05-20T10:27:43.858Z,1004.26
2023-05-20T10:28:43.845Z,1004.24
2023-05-20T10:29:43.846Z,1004.14
2023-05-20T10:30:44.530Z,1004.15
2023-05-20T10:31:43.827Z,1004.22
2023-05-20T10:32:48.879Z,1004.09
2023-05-20T10:33:43.810Z,1004.07
2023-05-20T10:34:43.798Z,1004.08
2023-05-20T10:35:43.787Z,1004.15
2023-05-20T10:36:43.809Z,1004.05
2023-05-20T10:37:43.746Z,1004.10
2023-05-20T10:38:43.730Z,1004.04
2023-05-20T10:39:43.722Z,1004.05
2023-05-20T10:40:43.720Z,1003.98
2023-05-20T10:41:43.696Z,1004.02
2023-05-20T10:42:43.731Z,1004.19
2023-05-20T10:43:48.694Z,1004.03
2023-05-20T10:44:43.681Z,1004.07
2023-05-20T10:45:43.667Z,1004.05
2023-05-20T10:47:43.687Z,1003.96
2023-05-20T10:48:43.740Z,1004.07
2023-05-20T10:49:43.614Z,1004.28
2023-05-20T10:50:43.618Z,1004.19
2023-05-20T10:51:43.584Z,1004.12
2023-05-20T10:52:43.571Z,1003.98
2023-05-20T10:53:43.566Z,1003.98
2023-05-20T10:54:51.492Z,1003.96
2023-05-20T10:55:43.533Z,1003.93
2023-05-20T10:56:43.525Z,1004.06
2023-05-20T10:57:43.523Z,1003.91
2023-05-20T10:58:43.511Z,1003.97
2023-05-20T10:59:43.497Z,1003.99
2023-05-20T11:00:43.580Z,1003.96
2023-05-20T11:01:43.493Z,1004.04
2023-05-20T11:02:43.577Z,1003.95
2023-05-20T11:03:43.599Z,1004.08
2023-05-20T11:04:43.445Z,1003.87
2023-05-20T11:05:48.467Z,1004.02
2023-05-20T11:06:43.462Z,1004.00
2023-05-20T11:07:43.406Z,1003.83
2023-05-20T11:08:43.415Z,1003.81
2023-05-20T11:09:43.378Z,1004.03
2023-05-20T11:10:43.373Z,1004.14
2023-05-20T11:11:43.355Z,1004.08
2023-05-20T11:12:43.456Z,1004.09
2023-05-20T11:13:43.362Z,1004.15
2023-05-20T11:14:43.324Z,1004.06
2023-05-20T11:15:43.318Z,1004.08
2023-05-20T11:16:48.343Z,1004.11
2023-05-20T11:17:43.349Z,1004.13
2023-05-20T11:18:43.464Z,1003.82
2023-05-20T11:19:43.272Z,1003.84
2023-05-20T11:20:43.262Z,1003.79
2023-05-20T11:21:43.269Z,1003.76
2023-05-20T11:22:43.249Z,1003.89
2023-05-20T11:23:43.224Z,1003.75
2023-05-20T11:24:43.262Z,1003.72
2023-05-20T11:25:43.229Z,1003.71
2023-05-20T11:26:43.200Z,1003.72
2023-05-20T11:27:43.191Z,1003.73
2023-05-20T11:28:43.174Z,1003.81
2023-05-20T11:29:48.196Z,1003.71
2023-05-20T11:30:43.336Z,1003.68
2023-05-20T11:31:43.219Z,1003.65
2023-05-20T11:32:43.190Z,1003.66
2023-05-20T11:33:43.113Z,1003.72
2023-05-20T11:34:43.105Z,1003.59
2023-05-20T11:35:43.233Z,1003.56
2023-05-20T11:36:43.095Z,1003.67
2023-05-20T11:37:43.094Z,1003.74
2023-05-20T11:38:43.160Z,1003.68
2023-05-20T11:39:43.053Z,1003.81
2023-05-20T11:40:50.389Z,1003.79
2023-05-20T11:41:43.035Z,1003.73
2023-05-20T11:42:48.040Z,1003.76
2023-05-20T11:43:43.039Z,1003.85
2023-05-20T11:44:43.053Z,1003.67
2023-05-20T11:45:42.985Z,1003.67
2023-05-20T11:46:43.061Z,1003.68
2023-05-20T11:47:43.009Z,1003.67
2023-05-20T11:48:42.956Z,1003.72
2023-05-20T11:49:42.941Z,1003.70
2023-05-20T11:50:42.974Z,1003.70
2023-05-20T11:51:42.913Z,1003.58
2023-05-20T11:52:42.906Z,1003.68
2023-05-20T11:53:47.936Z,1003.67
2023-05-20T11:54:42.892Z,1003.59
2023-05-20T11:55:42.886Z,1003.57
2023-05-20T11:56:42.891Z,1003.92
2023-05-20T11:57:42.852Z,1003.86
2023-05-20T11:58:42.849Z,1003.93
2023-05-20T11:59:42.853Z,1003.48
2023-05-20T12:00:51.313Z,1003.49
2023-05-20T12:01:42.837Z,1003.51
2023-05-20T12:02:42.921Z,1003.56
2023-05-20T12:03:42.940Z,1003.52
2023-05-20T12:04:47.831Z,1003.65
2023-05-20T12:05:42.773Z,1003.65
2023-05-20T12:06:42.745Z,1003.90
2023-05-20T12:07:42.760Z,1003.58
2023-05-20T12:08:42.756Z,1003.60
2023-05-20T12:09:42.743Z,1003.52
2023-05-20T12:10:42.708Z,1003.58
2023-05-20T12:11:42.704Z,1003.50
2023-05-20T12:12:42.680Z,1003.48
2023-05-20T12:13:42.665Z,1003.71
2023-05-20T12:14:42.719Z,1003.61
2023-05-20T12:15:47.680Z,1003.64
2023-05-20T12:16:42.659Z,1003.73
2023-05-20T12:17:42.661Z,1003.50
2023-05-20T12:18:42.648Z,1003.74
2023-05-20T12:19:42.632Z,1003.78
2023-05-20T12:20:42.658Z,1003.71
2023-05-20T12:21:42.597Z,1003.56
2023-05-20T12:22:42.568Z,1003.41
2023-05-20T12:23:42.561Z,1003.47
2023-05-20T12:24:42.553Z,1003.42
2023-05-20T12:25:42.554Z,1003.40
2023-05-20T12:26:42.577Z,1003.46
2023-05-20T12:27:42.512Z,1003.52
2023-05-20T12:28:47.542Z,1003.45
2023-05-20T12:29:42.513Z,1003.48
2023-05-20T12:30:42.520Z,1003.54
2023-05-20T12:31:42.535Z,1003.45
2023-05-20T12:32:42.592Z,1003.53
2023-05-20T12:33:42.450Z,1003.44
2023-05-20T12:34:42.431Z,1003.41
2023-05-20T12:35:42.422Z,1003.36
2023-05-20T12:36:42.411Z,1003.47
2023-05-20T12:37:42.409Z,1003.38
2023-05-20T12:38:42.469Z,1003.40
2023-05-20T12:39:42.374Z,1003.40
2023-05-20T12:40:42.365Z,1003.40
2023-05-20T12:41:47.395Z,1003.34
2023-05-20T12:42:42.369Z,1003.35
2023-05-20T12:43:42.329Z,1003.40
2023-05-20T12:44:42.355Z,1003.34
2023-05-20T12:45:42.379Z,1003.39
2023-05-20T12:46:42.334Z,1003.26
2023-05-20T12:47:42.302Z,1003.31
2023-05-20T12:48:42.808Z,1003.33
2023-05-20T12:49:42.269Z,1003.39
2023-05-20T12:50:42.294Z,1003.32
2023-05-20T12:51:42.265Z,1003.33
2023-05-20T12:52:47.282Z,1003.33
2023-05-20T12:53:42.215Z,1003.31
2023-05-20T12:54:42.210Z,1003.25
2023-05-20T12:55:42.196Z,1003.30
2023-05-20T12:56:42.231Z,1003.33
2023-05-20T12:57:42.197Z,1003.27
2023-05-20T12:58:42.179Z,1003.39
2023-05-20T12:59:42.147Z,1003.27
2023-05-20T13:00:42.168Z,1003.34
2023-05-20T13:01:42.207Z,1003.38
2023-05-20T13:02:42.282Z,1003.32
2023-05-20T13:03:47.162Z,1003.38
2023-05-20T13:04:42.099Z,1003.33
2023-05-20T13:05:42.095Z,1003.33
2023-05-20T13:06:42.092Z,1003.31
2023-05-20T13:07:42.073Z,1003.36
2023-05-20T13:08:42.049Z,1003.35
2023-05-20T13:09:42.064Z,1003.33
2023-05-20T13:10:42.048Z,1003.34
2023-05-20T13:11:42.016Z,1003.31
2023-05-20T13:12:42.012Z,1003.33
2023-05-20T13:13:42.013Z,1003.25
2023-05-20T13:14:47.009Z,1003.27
2023-05-20T13:15:42.013Z,1003.26
2023-05-20T13:16:42.015Z,1003.31
2023-05-20T13:17:41.987Z,1003.31
2023-05-20T13:18:41.973Z,1003.25
2023-05-20T13:19:41.939Z,1003.25
2023-05-20T13:20:41.926Z,1003.24
2023-05-20T13:21:41.933Z,1003.22
2023-05-20T13:22:41.896Z,1003.18
2023-05-20T13:23:41.893Z,1003.19
2023-05-20T13:24:41.899Z,1003.15
2023-05-20T13:25:46.892Z,1003.12
2023-05-20T13:26:41.850Z,1003.15
2023-05-20T13:27:41.866Z,1003.15
2023-05-20T13:28:41.838Z,1003.07
2023-05-20T13:29:41.862Z,1003.12
2023-05-20T13:30:41.946Z,1003.11
2023-05-20T13:31:41.793Z,1003.11
2023-05-20T13:32:41.841Z,1003.11
2023-05-20T13:33:41.805Z,1003.13
2023-05-20T13:34:41.771Z,1003.04
2023-05-20T13:35:41.753Z,1003.14
2023-05-20T13:36:46.774Z,1003.06
2023-05-20T13:37:41.729Z,1003.06
2023-05-20T13:38:41.730Z,1003.03
2023-05-20T13:39:41.757Z,1003.06
2023-05-20T13:40:41.705Z,1003.05
2023-05-20T13:41:41.687Z,1003.06
2023-05-20T13:42:41.701Z,1003.01
2023-05-20T13:43:41.668Z,1003.03
2023-05-20T13:44:41.648Z,1003.04
2023-05-20T13:45:41.671Z,1003.03
2023-05-20T13:46:41.749Z,1003.02
2023-05-20T13:47:46.674Z,1002.97
2023-05-20T13:48:41.611Z,1002.93
2023-05-20T13:49:41.597Z,1002.96
2023-05-20T13:50:41.585Z,1002.96
2023-05-20T13:51:41.606Z,1002.92
2023-05-20T13:52:41.555Z,1002.92
2023-05-20T13:53:41.558Z,1002.85
2023-05-20T13:54:41.538Z,1002.87
2023-05-20T13:55:41.538Z,1002.86
2023-05-20T13:56:41.510Z,1002.88
2023-05-20T13:57:41.730Z,1002.88
2023-05-20T13:58:46.541Z,1002.88
2023-05-20T13:59:41.473Z,1002.87
2023-05-20T14:00:41.461Z,1002.89
2023-05-20T14:01:41.564Z,1002.83
2023-05-20T14:02:41.561Z,1002.80
2023-05-20T14:03:41.590Z,1002.76
2023-05-20T14:04:41.419Z,1002.67
2023-05-20T14:05:41.422Z,1002.73
2023-05-20T14:06:41.403Z,1002.69
2023-05-20T14:07:41.412Z,1002.79
2023-05-20T14:08:41.379Z,1002.63
2023-05-20T14:09:46.411Z,1002.74
2023-05-20T14:10:41.379Z,1002.72
2023-05-20T14:11:41.381Z,1002.68
2023-05-20T14:12:41.341Z,1002.71
2023-05-20T14:13:41.328Z,1002.66
2023-05-20T14:14:41.309Z,1002.61
2023-05-20T14:15:41.332Z,1002.65
2023-05-20T14:16:41.336Z,1002.58
2023-05-20T14:17:41.325Z,1002.57
2023-05-20T14:18:41.287Z,1002.62
2023-05-20T14:19:41.310Z,1002.53
2023-05-20T14:20:46.274Z,1002.61
2023-05-20T14:21:41.263Z,1002.56
2023-05-20T14:22:41.367Z,1002.58
2023-05-20T14:23:41.225Z,1002.55
2023-05-20T14:24:41.202Z,1002.50
2023-05-20T14:25:41.192Z,1002.48
2023-05-20T14:26:41.194Z,1002.53
2023-05-20T14:27:41.166Z,1002.55
2023-05-20T14:28:41.150Z,1002.53
2023-05-20T14:29:41.179Z,1002.54
2023-05-20T14:30:41.151Z,1002.50
2023-05-20T14:31:46.146Z,1002.48
2023-05-20T14:32:41.212Z,1002.46
2023-05-20T14:33:41.119Z,1002.41
2023-05-20T14:34:41.196Z,1002.35
2023-05-20T14:35:41.146Z,1002.51
2023-05-20T14:36:41.070Z,1002.44
2023-05-20T14:37:41.052Z,1002.48
2023-05-20T14:38:41.049Z,1002.41
2023-05-20T14:39:41.068Z,1002.48
2023-05-20T14:40:41.025Z,1002.43
2023-05-20T14:41:41.038Z,1002.37
2023-05-20T14:42:46.020Z,1002.37
2023-05-20T14:43:41.000Z,1002.39
2023-05-20T14:44:40.988Z,1002.38
2023-05-20T14:45:40.970Z,1002.42
2023-05-20T14:46:41.012Z,1002.33
2023-05-20T14:47:40.993Z,1002.32
2023-05-20T14:48:40.931Z,1002.31
2023-05-20T14:49:40.962Z,1002.27
2023-05-20T14:50:40.919Z,1002.28
2023-05-20T14:51:40.892Z,1002.24
2023-05-20T14:52:40.899Z,1002.25
2023-05-20T14:53:45.930Z,1002.22
2023-05-20T14:54:40.890Z,1002.15
2023-05-20T14:55:40.853Z,1002.18
2023-05-20T14:56:40.850Z,1002.24
2023-05-20T14:57:40.833Z,1002.15
2023-05-20T14:58:40.826Z,1002.29
2023-05-20T14:59:40.835Z,1002.17
2023-05-20T15:00:40.863Z,1002.20
2023-05-20T15:01:40.809Z,1002.18
2023-05-20T15:02:40.849Z,1002.21
2023-05-20T15:03:40.858Z,1002.21
2023-05-20T15:04:45.793Z,1002.22
2023-05-20T15:05:40.776Z,1002.20
2023-05-20T15:06:40.724Z,1002.20
2023-05-20T15:07:40.734Z,1002.22
2023-05-20T15:08:40.710Z,1002.24
2023-05-20T15:09:40.705Z,1002.29
2023-05-20T15:10:40.681Z,1002.26
2023-05-20T15:11:40.706Z,1002.24
2023-05-20T15:12:40.665Z,1002.25
2023-05-20T15:13:40.645Z,1002.27
2023-05-20T15:14:40.646Z,1002.24
2023-05-20T15:15:45.651Z,1002.28
2023-05-20T15:16:40.634Z,1002.24
2023-05-20T15:17:40.660Z,1002.29
2023-05-20T15:18:40.612Z,1002.29
2023-05-20T15:19:41.569Z,1002.24
2023-05-20T15:20:40.806Z,1002.27
2023-05-20T15:21:40.575Z,1002.28
2023-05-20T15:22:40.562Z,1002.28
2023-05-20T15:23:40.556Z,1002.26
2023-05-20T15:24:40.563Z,1002.22
2023-05-20T15:25:40.520Z,1002.24
2023-05-20T15:26:45.547Z,1002.20
2023-05-20T15:27:40.495Z,1002.27
2023-05-20T15:28:40.490Z,1002.23
2023-05-20T15:29:41.000Z,1002.14
2023-05-20T15:30:40.474Z,1002.22
2023-05-20T15:31:40.460Z,1002.23
2023-05-20T15:32:40.522Z,1002.22
2023-05-20T15:33:40.591Z,1002.27
2023-05-20T15:34:40.418Z,1002.30
2023-05-20T15:35:40.430Z,1002.36
2023-05-20T15:36:40.452Z,1002.29
2023-05-20T15:37:45.409Z,1002.26
2023-05-20T15:38:40.378Z,1002.34
2023-05-20T15:39:40.365Z,1002.37
2023-05-20T15:40:40.356Z,1002.25
2023-05-20T15:41:40.706Z,1002.35
2023-05-20T15:42:40.324Z,1002.29
2023-05-20T15:43:40.322Z,1002.24
2023-05-20T15:44:40.304Z,1002.28
2023-05-20T15:45:40.300Z,1002.25
2023-05-20T15:46:40.418Z,1002.25
2023-05-20T15:47:40.950Z,1002.22
2023-05-20T15:48:45.284Z,1002.30
2023-05-20T15:49:40.256Z,1002.28
2023-05-20T15:50:40.309Z,1002.21
2023-05-20T15:51:42.612Z,1002.27
2023-05-20T15:52:40.301Z,1002.32
2023-05-20T15:53:40.897Z,1002.25
2023-05-20T15:54:40.199Z,1002.32
2023-05-20T15:55:41.137Z,1002.37
2023-05-20T15:56:40.178Z,1002.35
2023-05-20T15:57:40.190Z,1002.38
2023-05-20T15:58:40.146Z,1002.46
2023-05-20T15:59:45.196Z,1002.44
2023-05-20T16:00:40.126Z,1002.39
2023-05-20T16:01:40.421Z,1002.38
2023-05-20T16:02:40.392Z,1002.30
2023-05-20T16:03:40.182Z,1002.29
2023-05-20T16:04:40.097Z,1002.35
2023-05-20T16:05:40.107Z,1002.27
2023-05-20T16:06:40.059Z,1002.30
2023-05-20T16:07:40.045Z,1002.26
2023-05-20T16:08:40.066Z,1002.29
2023-05-20T16:09:40.043Z,1002.32
2023-05-20T16:10:45.032Z,1002.26
2023-05-20T16:11:40.052Z,1002.34
2023-05-20T16:12:39.990Z,1002.25
2023-05-20T16:13:39.997Z,1002.32
2023-05-20T16:14:39.981Z,1002.33
2023-05-20T16:15:40.005Z,1002.31
2023-05-20T16:16:40.063Z,1002.35
2023-05-20T16:17:39.985Z,1002.32
2023-05-20T16:18:40.013Z,1002.26
2023-05-20T16:19:39.956Z,1002.29
2023-05-20T16:20:39.933Z,1002.26
2023-05-20T16:21:44.912Z,1002.25
2023-05-20T16:22:39.892Z,1002.25
2023-05-20T16:23:39.909Z,1002.28
2023-05-20T16:24:39.880Z,1002.32
2023-05-20T16:25:39.849Z,1002.29
2023-05-20T16:26:39.843Z,1002.31
2023-05-20T16:27:39.834Z,1002.35
2023-05-20T16:28:39.834Z,1002.32
2023-05-20T16:29:39.881Z,1002.24
2023-05-20T16:30:39.789Z,1002.32
2023-05-20T16:31:39.796Z,1002.32
2023-05-20T16:32:44.836Z,1002.31
2023-05-20T16:33:39.754Z,1002.26
2023-05-20T16:34:39.750Z,1002.24
2023-05-20T16:35:39.785Z,1002.23
2023-05-20T16:36:39.759Z,1002.27
2023-05-20T16:37:39.736Z,1002.25
2023-05-20T16:38:39.702Z,1002.23
2023-05-20T16:39:39.699Z,1002.21
2023-05-20T16:40:39.704Z,1002.24
2023-05-20T16:41:39.774Z,1002.19
2023-05-20T16:42:39.660Z,1002.26
2023-05-20T16:43:44.684Z,1002.27
2023-05-20T16:44:39.632Z,1002.29
2023-05-20T16:45:39.635Z,1002.28
2023-05-20T16:46:39.622Z,1002.25
2023-05-20T16:47:39.680Z,1002.27
2023-05-20T16:48:39.595Z,1002.31
2023-05-20T16:49:39.585Z,1002.31
2023-05-20T16:50:39.565Z,1002.34
2023-05-20T16:51:39.569Z,1002.33
2023-05-20T16:52:39.589Z,1002.38
2023-05-20T16:53:39.625Z,1002.41
2023-05-20T16:54:44.539Z,1002.43
2023-05-20T16:55:39.513Z,1002.44
2023-05-20T16:56:39.534Z,1002.40
2023-05-20T16:57:39.493Z,1002.48
2023-05-20T16:58:39.484Z,1002.46
2023-05-20T16:59:39.490Z,1002.46
2023-05-20T17:00:39.475Z,1002.49
2023-05-20T17:01:39.522Z,1002.47
2023-05-20T17:02:39.466Z,1002.46
2023-05-20T17:03:39.420Z,1002.42
2023-05-20T17:04:39.483Z,1002.39
2023-05-20T17:05:44.493Z,1002.47
2023-05-20T17:06:39.386Z,1002.37